createdAt,value
2023-08-11T00:01:12.719Z,52.29
2023-08-11T00:03:44.631Z,52.35
2023-08-11T00:06:17.709Z,52.34
2023-08-11T00:08:48.217Z,52.66
2023-08-11T00:11:19.451Z,52.68
2023-08-11T00:13:50.021Z,52.71
2023-08-11T00:16:20.606Z,52.99
2023-08-11T00:18:52.069Z,53.10
2023-08-11T00:21:24.886Z,53.34
2023-08-11T00:23:55.876Z,53.48
2023-08-11T00:26:26.374Z,53.88
2023-08-11T00:28:56.962Z,53.77
2023-08-11T00:31:27.622Z,53.80
2023-08-11T00:33:58.590Z,54.28
2023-08-11T00:36:29.084Z,54.24
2023-08-11T00:39:01.576Z,54.42
2023-08-11T00:41:33.807Z,54.62
2023-08-11T00:44:04.369Z,54.81
2023-08-11T00:46:34.996Z,54.92
2023-08-11T00:49:05.906Z,55.27
2023-08-11T00:51:38.226Z,55.37
2023-08-11T00:54:10.282Z,55.59
2023-08-11T00:56:45.376Z,55.73
2023-08-11T00:59:17.658Z,55.78
2023-08-11T01:01:48.168Z,55.93
2023-08-11T01:04:18.727Z,55.97
2023-08-11T01:06:53.322Z,56.21
2023-08-11T01:09:33.050Z,56.45
2023-08-11T01:12:13.952Z,56.50
2023-08-11T01:14:55.943Z,56.61
2023-08-11T01:17:28.283Z,56.69
2023-08-11T01:20:00.007Z,56.79
2023-08-11T01:22:33.884Z,57.03
2023-08-11T01:25:04.953Z,57.02
2023-08-11T01:27:38.598Z,57.06
2023-08-11T01:30:11.622Z,57.07
2023-08-11T01:32:42.644Z,57.37
2023-08-11T01:35:17.327Z,57.42
2023-08-11T01:37:53.298Z,57.39
2023-08-11T01:40:25.058Z,57.46
2023-08-11T01:42:57.023Z,57.33
2023-08-11T01:45:28.299Z,57.23
2023-08-11T01:48:01.413Z,57.42
2023-08-11T01:50:33.676Z,57.55
2023-08-11T01:53:04.192Z,57.57
2023-08-11T01:55:37.506Z,57.12
2023-08-11T01:58:08.823Z,57.40
2023-08-11T02:00:39.297Z,57.34
2023-08-11T02:03:10.223Z,57.00
2023-08-11T02:05:40.847Z,57.07
2023-08-11T02:08:12.308Z,57.07
2023-08-11T02:10:42.820Z,56.93
2023-08-11T02:13:13.695Z,56.77
2023-08-11T02:15:45.141Z,56.71
2023-08-11T02:18:15.812Z,56.69
2023-08-11T02:20:47.181Z,56.94
2023-08-11T02:23:17.683Z,56.92
2023-08-11T02:25:48.132Z,56.97
2023-08-11T02:28:18.766Z,57.04
2023-08-11T02:30:49.757Z,57.23
2023-08-11T02:33:21.907Z,57.21
2023-08-11T02:35:52.391Z,57.36
2023-08-11T02:38:22.917Z,57.40
2023-08-11T02:40:53.483Z,57.63
2023-08-11T02:43:24.017Z,57.88
2023-08-11T02:45:54.558Z,57.84
2023-08-11T02:48:25.090Z,57.79
2023-08-11T02:50:55.607Z,57.95
2023-08-11T02:53:26.158Z,57.93
2023-08-11T02:55:56.883Z,58.07
2023-08-11T02:58:28.153Z,58.23
2023-08-11T03:00:59.364Z,58.33
2023-08-11T03:03:30.271Z,58.35
2023-08-11T03:06:01.025Z,58.40
2023-08-11T03:08:31.593Z,58.37
2023-08-11T03:11:02.382Z,58.41
2023-08-11T03:13:37.245Z,58.54
